Pompano Beach, FL

03:11 PM EST die 02o December, anno 2016 (GMT -0500)
Pompano Beach | | Change Station

Elev 20 ft 26.25 °N, 80.11 °W | Updated 18 minutes ago

Partly Cloudy
Partialiter Nubila
81 °F
Feels Like 85 °F
N
15
Ventus Variabilis Ventus from Magis Aquilo quam Eurus

Hodie
High -- | Low -- °F
--% Chance of Precip.
Yesterday
High -- | Low -- °F
Precip. -- in
Pressio 30.03 in
Visibilitas 8.0 milia passuum
Clouds Few 9500 ft
Index Caloris 85 °F
Frigus in quo Ros apparet 71 °F
Umor 72%
Rainfall 0.00 in
Snow Depth Not available.
6:52 AM 5:28 PM
Waxing Crescent, 10% visible
METAR KPMP 021953Z 03013KT 8SM FEW095 27/22 A3002 RMK AO2 SLP167 T02720217
Pressio 30.03 in
Visibilitas 8.0 milia passuum
Clouds Few 9500 ft
Index Caloris 85 °F
Frigus in quo Ros apparet 71 °F
Umor 72%
Rainfall 0.00 in
Snow Depth Not available.
6:52 AM 5:28 PM
Waxing Crescent, 10% visible
METAR KPMP 021953Z 03013KT 8SM FEW095 27/22 A3002 RMK AO2 SLP167 T02720217

10-Day Weather Forecast

Almanac

Astronomy

Dec. 02, 2016 Rise Set
Actual Time
Civil Twilight
Nautical Twilight
Astronomical Twilight
Moon
Length Of Visible Light
Length of Day
Tomorrow will be .
, % of the Moon is Illuminated

Today's Extremes

State Highs State Lows

Community

WunderPhotos

Upload Photos

1,955,348 photos uploaded!

WunderBlog® & News

Nearby

Air Quality

  Air Quality AQ Index Pollutant
Not available.

Snow Depth

Station Depth Elevation

Earthquake Activity

City Distance Mag. Time & Date
Minimum magnitude displayed is 2.5.

Coastal Water Temperatures

Locus Calor

Stations

Nearby Weather Stations

Station Location Temp Frigus Venti Frigus in quo Ros apparet Umor Ventus Precip. Elev Renovata Type
                   

Watches & Warnings

There are currently no watches in effect.